sensor_id;sensor_type;location;lat;lon;timestamp;P1;durP1;ratioP1;P2;durP2;ratioP2
23078;SDS011;11707;50.830;4.364;2023-05-16T00:01:00;19.75;;;2.67;;
23078;SDS011;11707;50.830;4.364;2023-05-16T00:03:28;14.20;;;3.15;;
23078;SDS011;11707;50.830;4.364;2023-05-16T00:05:57;14.10;;;3.22;;
23078;SDS011;11707;50.830;4.364;2023-05-16T00:08:23;13.98;;;2.72;;
23078;SDS011;11707;50.830;4.364;2023-05-16T00:10:49;19.23;;;3.78;;
23078;SDS011;11707;50.830;4.364;2023-05-16T00:13:14;16.10;;;3.20;;
23078;SDS011;11707;50.830;4.364;2023-05-16T00:15:46;13.55;;;3.38;;
23078;SDS011;11707;50.830;4.364;2023-05-16T00:18:11;13.20;;;2.55;;
23078;SDS011;11707;50.830;4.364;2023-05-16T00:20:40;13.70;;;2.42;;
23078;SDS011;11707;50.830;4.364;2023-05-16T00:23:06;11.00;;;2.25;;
23078;SDS011;11707;50.830;4.364;2023-05-16T00:25:32;23.58;;;2.90;;
23078;SDS011;11707;50.830;4.364;2023-05-16T00:27:57;13.80;;;3.10;;
23078;SDS011;11707;50.830;4.364;2023-05-16T00:30:23;21.15;;;3.40;;
23078;SDS011;11707;50.830;4.364;2023-05-16T00:32:48;15.80;;;3.38;;
23078;SDS011;11707;50.830;4.364;2023-05-16T00:35:14;13.90;;;3.50;;
23078;SDS011;11707;50.830;4.364;2023-05-16T00:37:40;17.13;;;3.63;;
23078;SDS011;11707;50.830;4.364;2023-05-16T00:40:05;17.02;;;3.17;;
23078;SDS011;11707;50.830;4.364;2023-05-16T00:42:32;15.45;;;4.75;;
23078;SDS011;11707;50.830;4.364;2023-05-16T00:45:00;15.23;;;3.83;;
23078;SDS011;11707;50.830;4.364;2023-05-16T00:47:26;13.32;;;2.45;;
23078;SDS011;11707;50.830;4.364;2023-05-16T00:49:51;16.67;;;3.55;;
23078;SDS011;11707;50.830;4.364;2023-05-16T00:52:17;14.05;;;2.60;;
23078;SDS011;11707;50.830;4.364;2023-05-16T00:54:46;12.90;;;2.85;;
23078;SDS011;11707;50.830;4.364;2023-05-16T00:57:12;13.10;;;2.60;;
23078;SDS011;11707;50.830;4.364;2023-05-16T00:59:38;17.25;;;2.80;;
23078;SDS011;11707;50.830;4.364;2023-05-16T01:02:04;23.27;;;3.47;;
23078;SDS011;11707;50.830;4.364;2023-05-16T01:04:30;17.80;;;2.92;;
23078;SDS011;11707;50.830;4.364;2023-05-16T01:06:56;15.50;;;3.08;;
23078;SDS011;11707;50.830;4.364;2023-05-16T01:09:22;13.77;;;2.72;;
23078;SDS011;11707;50.830;4.364;2023-05-16T01:14:45;10.70;;;2.80;;
23078;SDS011;11707;50.830;4.364;2023-05-16T01:20:13;13.88;;;2.45;;
23078;SDS011;11707;50.830;4.364;2023-05-16T01:28:41;13.95;;;3.17;;
23078;SDS011;11707;50.830;4.364;2023-05-16T01:31:09;19.00;;;2.95;;
23078;SDS011;11707;50.830;4.364;2023-05-16T01:33:35;11.85;;;3.35;;
23078;SDS011;11707;50.830;4.364;2023-05-16T01:42:00;21.98;;;3.92;;
23078;SDS011;11707;50.830;4.364;2023-05-16T01:44:34;18.10;;;2.80;;
23078;SDS011;11707;50.830;4.364;2023-05-16T01:47:08;13.00;;;2.97;;
23078;SDS011;11707;50.830;4.364;2023-05-16T01:49:45;15.52;;;3.53;;
23078;SDS011;11707;50.830;4.364;2023-05-16T01:55:22;15.70;;;2.88;;
23078;SDS011;11707;50.830;4.364;2023-05-16T01:57:54;13.55;;;2.78;;
23078;SDS011;11707;50.830;4.364;2023-05-16T02:00:20;17.60;;;3.20;;
23078;SDS011;11707;50.830;4.364;2023-05-16T02:02:47;24.10;;;3.88;;
23078;SDS011;11707;50.830;4.364;2023-05-16T02:05:12;13.88;;;3.15;;
23078;SDS011;11707;50.830;4.364;2023-05-16T02:07:41;15.00;;;3.15;;
23078;SDS011;11707;50.830;4.364;2023-05-16T02:10:07;16.13;;;5.47;;
23078;SDS011;11707;50.830;4.364;2023-05-16T02:12:33;15.00;;;2.92;;
23078;SDS011;11707;50.830;4.364;2023-05-16T02:14:59;14.18;;;2.90;;
23078;SDS011;11707;50.830;4.364;2023-05-16T02:17:27;11.43;;;2.60;;
23078;SDS011;11707;50.830;4.364;2023-05-16T02:19:52;14.48;;;2.63;;
23078;SDS011;11707;50.830;4.364;2023-05-16T02:22:18;12.25;;;3.40;;
23078;SDS011;11707;50.830;4.364;2023-05-16T02:24:44;15.27;;;2.53;;
23078;SDS011;11707;50.830;4.364;2023-05-16T02:27:10;15.15;;;2.88;;
23078;SDS011;11707;50.830;4.364;2023-05-16T02:29:35;16.45;;;3.20;;
23078;SDS011;11707;50.830;4.364;2023-05-16T02:32:01;10.00;;;3.10;;
23078;SDS011;11707;50.830;4.364;2023-05-16T02:34:27;16.77;;;3.42;;
23078;SDS011;11707;50.830;4.364;2023-05-16T02:36:52;15.55;;;2.55;;
23078;SDS011;11707;50.830;4.364;2023-05-16T02:39:18;28.42;;;3.50;;
23078;SDS011;11707;50.830;4.364;2023-05-16T02:41:46;18.88;;;3.17;;
23078;SDS011;11707;50.830;4.364;2023-05-16T02:44:12;18.60;;;3.38;;
23078;SDS011;11707;50.830;4.364;2023-05-16T02:46:37;11.48;;;2.38;;
23078;SDS011;11707;50.830;4.364;2023-05-16T02:49:03;17.15;;;3.08;;
23078;SDS011;11707;50.830;4.364;2023-05-16T02:51:29;17.92;;;4.00;;
23078;SDS011;11707;50.830;4.364;2023-05-16T02:53:57;19.55;;;3.25;;
23078;SDS011;11707;50.830;4.364;2023-05-16T02:56:29;14.70;;;3.13;;
23078;SDS011;11707;50.830;4.364;2023-05-16T02:58:55;16.40;;;3.45;;
23078;SDS011;11707;50.830;4.364;2023-05-16T03:01:20;15.00;;;3.33;;
23078;SDS011;11707;50.830;4.364;2023-05-16T03:03:46;20.42;;;3.25;;
23078;SDS011;11707;50.830;4.364;2023-05-16T03:06:12;10.00;;;3.05;;
23078;SDS011;11707;50.830;4.364;2023-05-16T03:08:38;20.25;;;3.53;;
23078;SDS011;11707;50.830;4.364;2023-05-16T03:11:03;14.13;;;3.20;;
23078;SDS011;11707;50.830;4.364;2023-05-16T03:13:31;14.38;;;2.90;;
23078;SDS011;11707;50.830;4.364;2023-05-16T03:15:57;9.38;;;2.67;;
23078;SDS011;11707;50.830;4.364;2023-05-16T03:18:24;18.08;;;3.80;;
23078;SDS011;11707;50.830;4.364;2023-05-16T03:20:49;10.63;;;2.70;;
23078;SDS011;11707;50.830;4.364;2023-05-16T03:23:17;20.15;;;3.85;;
23078;SDS011;11707;50.830;4.364;2023-05-16T03:25:45;20.38;;;4.18;;
23078;SDS011;11707;50.830;4.364;2023-05-16T03:28:15;19.80;;;3.35;;
23078;SDS011;11707;50.830;4.364;2023-05-16T03:30:41;14.13;;;2.90;;
23078;SDS011;11707;50.830;4.364;2023-05-16T03:33:07;11.35;;;3.15;;
23078;SDS011;11707;50.830;4.364;2023-05-16T03:35:35;15.65;;;3.35;;
23078;SDS011;11707;50.830;4.364;2023-05-16T03:38:02;15.05;;;3.50;;
23078;SDS011;11707;50.830;4.364;2023-05-16T03:40:27;14.00;;;3.53;;
23078;SDS011;11707;50.830;4.364;2023-05-16T03:42:56;17.40;;;3.85;;
23078;SDS011;11707;50.830;4.364;2023-05-16T03:45:22;13.55;;;3.25;;
23078;SDS011;11707;50.830;4.364;2023-05-16T03:47:48;17.30;;;3.28;;
23078;SDS011;11707;50.830;4.364;2023-05-16T03:50:14;14.73;;;4.13;;
23078;SDS011;11707;50.830;4.364;2023-05-16T03:52:40;10.20;;;3.72;;
23078;SDS011;11707;50.830;4.364;2023-05-16T03:55:06;18.63;;;3.22;;
23078;SDS011;11707;50.830;4.364;2023-05-16T03:57:32;18.05;;;2.92;;
23078;SDS011;11707;50.830;4.364;2023-05-16T03:59:58;17.88;;;3.50;;
23078;SDS011;11707;50.830;4.364;2023-05-16T04:02:24;20.92;;;4.53;;
23078;SDS011;11707;50.830;4.364;2023-05-16T04:04:50;17.80;;;3.58;;
23078;SDS011;11707;50.830;4.364;2023-05-16T04:07:16;13.52;;;2.67;;
23078;SDS011;11707;50.830;4.364;2023-05-16T04:09:41;11.60;;;2.67;;
23078;SDS011;11707;50.830;4.364;2023-05-16T04:12:07;14.43;;;2.70;;
23078;SDS011;11707;50.830;4.364;2023-05-16T04:14:33;21.92;;;3.25;;
23078;SDS011;11707;50.830;4.364;2023-05-16T04:16:59;14.27;;;3.22;;
23078;SDS011;11707;50.830;4.364;2023-05-16T04:19:25;12.05;;;2.85;;
23078;SDS011;11707;50.830;4.364;2023-05-16T04:21:51;13.23;;;3.10;;
23078;SDS011;11707;50.830;4.364;2023-05-16T04:24:17;14.38;;;3.00;;
23078;SDS011;11707;50.830;4.364;2023-05-16T04:26:43;14.15;;;3.83;;
23078;SDS011;11707;50.830;4.364;2023-05-16T04:29:11;13.60;;;2.90;;
23078;SDS011;11707;50.830;4.364;2023-05-16T04:31:38;22.52;;;3.33;;
23078;SDS011;11707;50.830;4.364;2023-05-16T04:34:03;14.75;;;5.32;;
23078;SDS011;11707;50.830;4.364;2023-05-16T04:36:29;17.83;;;4.00;;
23078;SDS011;11707;50.830;4.364;2023-05-16T04:38:59;20.77;;;3.33;;
23078;SDS011;11707;50.830;4.364;2023-05-16T04:41:27;14.38;;;2.95;;
23078;SDS011;11707;50.830;4.364;2023-05-16T04:43:57;21.13;;;4.97;;
23078;SDS011;11707;50.830;4.364;2023-05-16T04:46:28;16.38;;;3.28;;
23078;SDS011;11707;50.830;4.364;2023-05-16T04:48:54;20.30;;;3.20;;
23078;SDS011;11707;50.830;4.364;2023-05-16T04:51:19;19.70;;;3.20;;
23078;SDS011;11707;50.830;4.364;2023-05-16T04:53:45;24.92;;;4.05;;
23078;SDS011;11707;50.830;4.364;2023-05-16T04:56:12;12.93;;;2.60;;
23078;SDS011;11707;50.830;4.364;2023-05-16T04:58:37;18.73;;;2.97;;
23078;SDS011;11707;50.830;4.364;2023-05-16T05:01:03;15.80;;;3.00;;
23078;SDS011;11707;50.830;4.364;2023-05-16T05:03:29;13.65;;;3.17;;
23078;SDS011;11707;50.830;4.364;2023-05-16T05:05:54;20.88;;;4.05;;
23078;SDS011;11707;50.830;4.364;2023-05-16T05:08:20;13.85;;;3.72;;
23078;SDS011;11707;50.830;4.364;2023-05-16T05:10:46;24.15;;;3.53;;
23078;SDS011;11707;50.830;4.364;2023-05-16T05:13:12;13.25;;;2.85;;
23078;SDS011;11707;50.830;4.364;2023-05-16T05:15:38;16.55;;;3.80;;
23078;SDS011;11707;50.830;4.364;2023-05-16T05:18:03;14.77;;;3.78;;
23078;SDS011;11707;50.830;4.364;2023-05-16T05:20:34;9.70;;;2.67;;
23078;SDS011;11707;50.830;4.364;2023-05-16T05:23:00;13.35;;;3.33;;
23078;SDS011;11707;50.830;4.364;2023-05-16T05:25:26;11.98;;;2.58;;
23078;SDS011;11707;50.830;4.364;2023-05-16T05:27:52;10.77;;;2.80;;
23078;SDS011;11707;50.830;4.364;2023-05-16T05:30:17;17.98;;;2.83;;
23078;SDS011;11707;50.830;4.364;2023-05-16T05:32:43;18.52;;;3.10;;
23078;SDS011;11707;50.830;4.364;2023-05-16T05:35:09;11.90;;;2.90;;
23078;SDS011;11707;50.830;4.364;2023-05-16T05:37:35;14.98;;;2.80;;
23078;SDS011;11707;50.830;4.364;2023-05-16T05:40:03;11.93;;;3.10;;
23078;SDS011;11707;50.830;4.364;2023-05-16T05:42:29;12.45;;;2.78;;
23078;SDS011;11707;50.830;4.364;2023-05-16T05:44:55;19.70;;;10.52;;
23078;SDS011;11707;50.830;4.364;2023-05-16T05:47:21;10.85;;;2.40;;
23078;SDS011;11707;50.830;4.364;2023-05-16T05:49:46;13.88;;;3.25;;
23078;SDS011;11707;50.830;4.364;2023-05-16T05:52:15;12.10;;;3.08;;
23078;SDS011;11707;50.830;4.364;2023-05-16T05:54:43;13.45;;;2.72;;
23078;SDS011;11707;50.830;4.364;2023-05-16T05:57:11;17.13;;;2.88;;
23078;SDS011;11707;50.830;4.364;2023-05-16T05:59:37;9.95;;;2.30;;
23078;SDS011;11707;50.830;4.364;2023-05-16T06:02:05;7.00;;;1.95;;
23078;SDS011;11707;50.830;4.364;2023-05-16T06:04:34;28.90;;;2.90;;
23078;SDS011;11707;50.830;4.364;2023-05-16T06:07:00;8.13;;;1.83;;
23078;SDS011;11707;50.830;4.364;2023-05-16T06:09:26;18.95;;;3.28;;
23078;SDS011;11707;50.830;4.364;2023-05-16T06:11:51;12.57;;;2.10;;
23078;SDS011;11707;50.830;4.364;2023-05-16T06:14:19;18.83;;;3.50;;
23078;SDS011;11707;50.830;4.364;2023-05-16T06:16:47;12.27;;;2.78;;
23078;SDS011;11707;50.830;4.364;2023-05-16T06:19:12;15.10;;;2.55;;
23078;SDS011;11707;50.830;4.364;2023-05-16T06:21:41;24.50;;;2.90;;
23078;SDS011;11707;50.830;4.364;2023-05-16T06:24:07;12.80;;;1.98;;
23078;SDS011;11707;50.830;4.364;2023-05-16T06:26:34;10.15;;;1.77;;
23078;SDS011;11707;50.830;4.364;2023-05-16T06:29:00;10.23;;;1.95;;
23078;SDS011;11707;50.830;4.364;2023-05-16T06:31:29;16.95;;;2.70;;
23078;SDS011;11707;50.830;4.364;2023-05-16T06:33:57;5.85;;;2.25;;
23078;SDS011;11707;50.830;4.364;2023-05-16T06:36:23;17.30;;;2.28;;
23078;SDS011;11707;50.830;4.364;2023-05-16T06:38:49;6.38;;;2.10;;
23078;SDS011;11707;50.830;4.364;2023-05-16T06:41:15;15.95;;;2.80;;
23078;SDS011;11707;50.830;4.364;2023-05-16T06:43:41;14.90;;;2.00;;
23078;SDS011;11707;50.830;4.364;2023-05-16T06:46:06;14.27;;;2.50;;
23078;SDS011;11707;50.830;4.364;2023-05-16T06:48:32;13.63;;;2.17;;
23078;SDS011;11707;50.830;4.364;2023-05-16T06:50:58;9.57;;;2.85;;
23078;SDS011;11707;50.830;4.364;2023-05-16T06:53:26;12.00;;;2.25;;
23078;SDS011;11707;50.830;4.364;2023-05-16T06:55:52;16.92;;;2.30;;
23078;SDS011;11707;50.830;4.364;2023-05-16T06:58:18;12.77;;;2.00;;
23078;SDS011;11707;50.830;4.364;2023-05-16T07:00:44;12.07;;;2.38;;
23078;SDS011;11707;50.830;4.364;2023-05-16T07:03:10;15.60;;;2.60;;
23078;SDS011;11707;50.830;4.364;2023-05-16T07:05:43;17.02;;;2.97;;
23078;SDS011;11707;50.830;4.364;2023-05-16T07:08:09;13.60;;;2.17;;
23078;SDS011;11707;50.830;4.364;2023-05-16T07:10:40;9.00;;;2.13;;
23078;SDS011;11707;50.830;4.364;2023-05-16T07:13:06;21.95;;;2.15;;
23078;SDS011;11707;50.830;4.364;2023-05-16T07:15:32;19.27;;;2.80;;
23078;SDS011;11707;50.830;4.364;2023-05-16T07:17:58;7.50;;;2.20;;
23078;SDS011;11707;50.830;4.364;2023-05-16T07:20:23;15.05;;;2.72;;
23078;SDS011;11707;50.830;4.364;2023-05-16T07:22:52;10.20;;;2.20;;
23078;SDS011;11707;50.830;4.364;2023-05-16T07:25:21;11.85;;;1.98;;
23078;SDS011;11707;50.830;4.364;2023-05-16T07:27:50;11.07;;;2.30;;
23078;SDS011;11707;50.830;4.364;2023-05-16T07:30:18;24.90;;;2.33;;
23078;SDS011;11707;50.830;4.364;2023-05-16T07:32:45;13.43;;;2.17;;
23078;SDS011;11707;50.830;4.364;2023-05-16T07:35:11;10.20;;;2.58;;
23078;SDS011;11707;50.830;4.364;2023-05-16T07:37:37;12.02;;;2.08;;
23078;SDS011;11707;50.830;4.364;2023-05-16T07:40:05;8.23;;;2.03;;
23078;SDS011;11707;50.830;4.364;2023-05-16T07:42:32;7.75;;;1.83;;
23078;SDS011;11707;50.830;4.364;2023-05-16T07:44:58;9.40;;;2.45;;
23078;SDS011;11707;50.830;4.364;2023-05-16T07:47:23;10.02;;;2.30;;
23078;SDS011;11707;50.830;4.364;2023-05-16T07:49:49;7.97;;;1.67;;
23078;SDS011;11707;50.830;4.364;2023-05-16T07:52:15;10.35;;;1.95;;
23078;SDS011;11707;50.830;4.364;2023-05-16T07:54:45;7.35;;;2.03;;
23078;SDS011;11707;50.830;4.364;2023-05-16T07:57:14;9.70;;;2.75;;
23078;SDS011;11707;50.830;4.364;2023-05-16T07:59:40;11.20;;;2.42;;
23078;SDS011;11707;50.830;4.364;2023-05-16T08:02:06;11.73;;;1.63;;
23078;SDS011;11707;50.830;4.364;2023-05-16T08:04:32;11.48;;;2.22;;
23078;SDS011;11707;50.830;4.364;2023-05-16T08:06:58;9.20;;;2.05;;
23078;SDS011;11707;50.830;4.364;2023-05-16T08:09:23;10.10;;;1.90;;
23078;SDS011;11707;50.830;4.364;2023-05-16T08:11:50;7.32;;;1.38;;
23078;SDS011;11707;50.830;4.364;2023-05-16T08:14:16;7.93;;;1.83;;
23078;SDS011;11707;50.830;4.364;2023-05-16T08:16:44;7.00;;;1.27;;
23078;SDS011;11707;50.830;4.364;2023-05-16T08:19:12;7.05;;;2.15;;
23078;SDS011;11707;50.830;4.364;2023-05-16T08:21:40;7.10;;;2.17;;
23078;SDS011;11707;50.830;4.364;2023-05-16T08:24:06;10.07;;;1.60;;
23078;SDS011;11707;50.830;4.364;2023-05-16T08:26:37;9.13;;;1.75;;
23078;SDS011;11707;50.830;4.364;2023-05-16T08:29:03;9.63;;;1.33;;
23078;SDS011;11707;50.830;4.364;2023-05-16T08:31:28;8.38;;;1.48;;
23078;SDS011;11707;50.830;4.364;2023-05-16T08:33:54;6.43;;;1.67;;
23078;SDS011;11707;50.830;4.364;2023-05-16T08:36:22;9.57;;;2.13;;
23078;SDS011;11707;50.830;4.364;2023-05-16T08:38:48;11.07;;;2.00;;
23078;SDS011;11707;50.830;4.364;2023-05-16T08:41:14;6.63;;;1.58;;
23078;SDS011;11707;50.830;4.364;2023-05-16T08:43:42;9.55;;;1.30;;
23078;SDS011;11707;50.830;4.364;2023-05-16T08:46:08;5.03;;;1.30;;
23078;SDS011;11707;50.830;4.364;2023-05-16T08:48:35;7.95;;;1.90;;
23078;SDS011;11707;50.830;4.364;2023-05-16T08:51:02;6.05;;;2.53;;
23078;SDS011;11707;50.830;4.364;2023-05-16T08:53:36;10.82;;;1.40;;
23078;SDS011;11707;50.830;4.364;2023-05-16T08:56:06;7.00;;;1.33;;
23078;SDS011;11707;50.830;4.364;2023-05-16T08:58:35;7.53;;;2.08;;
23078;SDS011;11707;50.830;4.364;2023-05-16T09:01:03;7.38;;;2.35;;
23078;SDS011;11707;50.830;4.364;2023-05-16T09:03:35;4.82;;;1.35;;
23078;SDS011;11707;50.830;4.364;2023-05-16T09:06:03;7.18;;;2.13;;
23078;SDS011;11707;50.830;4.364;2023-05-16T09:08:30;8.50;;;1.30;;
23078;SDS011;11707;50.830;4.364;2023-05-16T09:10:55;8.85;;;2.10;;
23078;SDS011;11707;50.830;4.364;2023-05-16T09:13:21;12.20;;;2.28;;
23078;SDS011;11707;50.830;4.364;2023-05-16T09:16:06;8.60;;;1.83;;
23078;SDS011;11707;50.830;4.364;2023-05-16T09:18:36;7.75;;;1.60;;
23078;SDS011;11707;50.830;4.364;2023-05-16T09:21:03;7.85;;;1.80;;
23078;SDS011;11707;50.830;4.364;2023-05-16T09:23:30;9.18;;;1.98;;
23078;SDS011;11707;50.830;4.364;2023-05-16T09:25:57;8.75;;;1.85;;
23078;SDS011;11707;50.830;4.364;2023-05-16T09:28:26;6.45;;;1.90;;
23078;SDS011;11707;50.830;4.364;2023-05-16T09:30:52;5.53;;;1.30;;
23078;SDS011;11707;50.830;4.364;2023-05-16T09:33:22;6.55;;;1.48;;
23078;SDS011;11707;50.830;4.364;2023-05-16T09:35:59;13.25;;;1.73;;
23078;SDS011;11707;50.830;4.364;2023-05-16T09:38:26;9.45;;;2.92;;
23078;SDS011;11707;50.830;4.364;2023-05-16T09:40:52;8.32;;;1.45;;
23078;SDS011;11707;50.830;4.364;2023-05-16T09:43:21;10.50;;;1.70;;
23078;SDS011;11707;50.830;4.364;2023-05-16T09:45:49;7.50;;;1.77;;
23078;SDS011;11707;50.830;4.364;2023-05-16T09:48:16;10.50;;;2.05;;
23078;SDS011;11707;50.830;4.364;2023-05-16T09:50:46;11.10;;;2.25;;
23078;SDS011;11707;50.830;4.364;2023-05-16T09:53:16;6.75;;;1.60;;
23078;SDS011;11707;50.830;4.364;2023-05-16T09:55:52;5.50;;;1.90;;
23078;SDS011;11707;50.830;4.364;2023-05-16T09:58:44;7.35;;;1.80;;
23078;SDS011;11707;50.830;4.364;2023-05-16T10:01:11;4.88;;;1.73;;
23078;SDS011;11707;50.830;4.364;2023-05-16T10:03:40;4.15;;;1.15;;
23078;SDS011;11707;50.830;4.364;2023-05-16T10:06:06;10.88;;;1.52;;
23078;SDS011;11707;50.830;4.364;2023-05-16T10:08:35;4.30;;;1.02;;
23078;SDS011;11707;50.830;4.364;2023-05-16T10:11:02;5.95;;;1.70;;
23078;SDS011;11707;50.830;4.364;2023-05-16T10:13:30;5.57;;;1.40;;
23078;SDS011;11707;50.830;4.364;2023-05-16T10:15:58;7.38;;;1.30;;
23078;SDS011;11707;50.830;4.364;2023-05-16T10:18:30;8.93;;;1.25;;
23078;SDS011;11707;50.830;4.364;2023-05-16T10:21:00;4.07;;;1.67;;
23078;SDS011;11707;50.830;4.364;2023-05-16T10:23:32;2.53;;;0.80;;
23078;SDS011;11707;50.830;4.364;2023-05-16T10:25:59;5.63;;;0.95;;
23078;SDS011;11707;50.830;4.364;2023-05-16T10:28:30;5.43;;;1.25;;
23078;SDS011;11707;50.830;4.364;2023-05-16T10:30:56;5.97;;;1.42;;
23078;SDS011;11707;50.830;4.364;2023-05-16T10:33:25;3.72;;;1.27;;
23078;SDS011;11707;50.830;4.364;2023-05-16T10:35:51;4.97;;;0.95;;
23078;SDS011;11707;50.830;4.364;2023-05-16T10:38:17;4.50;;;1.52;;
23078;SDS011;11707;50.830;4.364;2023-05-16T10:40:43;5.78;;;1.50;;
23078;SDS011;11707;50.830;4.364;2023-05-16T10:43:21;5.50;;;1.30;;
23078;SDS011;11707;50.830;4.364;2023-05-16T10:46:09;4.72;;;1.35;;
23078;SDS011;11707;50.830;4.364;2023-05-16T10:48:36;7.55;;;1.52;;
23078;SDS011;11707;50.830;4.364;2023-05-16T10:51:03;6.35;;;1.50;;
23078;SDS011;11707;50.830;4.364;2023-05-16T10:53:45;6.70;;;1.83;;
23078;SDS011;11707;50.830;4.364;2023-05-16T10:56:11;6.00;;;1.33;;
23078;SDS011;11707;50.830;4.364;2023-05-16T11:01:15;10.55;;;1.42;;
23078;SDS011;11707;50.830;4.364;2023-05-16T11:19:38;6.40;;;1.70;;
23078;SDS011;11707;50.830;4.364;2023-05-16T11:22:12;4.10;;;0.80;;
23078;SDS011;11707;50.830;4.364;2023-05-16T11:27:23;5.55;;;1.20;;
23078;SDS011;11707;50.830;4.364;2023-05-16T11:29:49;6.85;;;1.70;;
23078;SDS011;11707;50.830;4.364;2023-05-16T11:32:18;6.22;;;1.38;;
23078;SDS011;11707;50.830;4.364;2023-05-16T11:34:46;7.00;;;1.00;;
23078;SDS011;11707;50.830;4.364;2023-05-16T11:37:12;7.13;;;1.70;;
23078;SDS011;11707;50.830;4.364;2023-05-16T11:39:39;5.22;;;1.30;;
23078;SDS011;11707;50.830;4.364;2023-05-16T11:42:10;6.53;;;1.35;;
23078;SDS011;11707;50.830;4.364;2023-05-16T11:44:35;4.28;;;0.98;;
23078;SDS011;11707;50.830;4.364;2023-05-16T11:47:07;3.15;;;1.13;;
23078;SDS011;11707;50.830;4.364;2023-05-16T11:49:33;6.90;;;1.48;;
23078;SDS011;11707;50.830;4.364;2023-05-16T11:52:00;6.18;;;1.45;;
23078;SDS011;11707;50.830;4.364;2023-05-16T11:54:26;6.35;;;1.20;;
23078;SDS011;11707;50.830;4.364;2023-05-16T11:56:53;6.20;;;1.25;;
23078;SDS011;11707;50.830;4.364;2023-05-16T11:59:21;6.65;;;1.52;;
23078;SDS011;11707;50.830;4.364;2023-05-16T12:01:47;8.25;;;1.30;;
23078;SDS011;11707;50.830;4.364;2023-05-16T12:04:15;4.22;;;1.27;;
23078;SDS011;11707;50.830;4.364;2023-05-16T12:06:42;4.25;;;1.10;;
23078;SDS011;11707;50.830;4.364;2023-05-16T12:09:12;6.70;;;1.52;;
23078;SDS011;11707;50.830;4.364;2023-05-16T12:11:39;5.70;;;1.85;;
23078;SDS011;11707;50.830;4.364;2023-05-16T12:14:10;7.28;;;1.75;;
23078;SDS011;11707;50.830;4.364;2023-05-16T12:16:37;8.68;;;2.17;;
23078;SDS011;11707;50.830;4.364;2023-05-16T12:19:06;11.25;;;1.77;;
23078;SDS011;11707;50.830;4.364;2023-05-16T12:21:36;6.18;;;1.77;;
23078;SDS011;11707;50.830;4.364;2023-05-16T12:24:03;7.45;;;1.40;;
23078;SDS011;11707;50.830;4.364;2023-05-16T12:26:30;7.03;;;1.20;;
23078;SDS011;11707;50.830;4.364;2023-05-16T12:29:00;6.28;;;2.05;;
23078;SDS011;11707;50.830;4.364;2023-05-16T12:31:30;6.82;;;1.25;;
23078;SDS011;11707;50.830;4.364;2023-05-16T12:33:59;4.07;;;1.25;;
23078;SDS011;11707;50.830;4.364;2023-05-16T12:36:25;7.35;;;1.55;;
23078;SDS011;11707;50.830;4.364;2023-05-16T12:38:58;8.75;;;1.67;;
23078;SDS011;11707;50.830;4.364;2023-05-16T12:41:25;8.27;;;1.55;;
23078;SDS011;11707;50.830;4.364;2023-05-16T12:44:05;4.13;;;1.20;;
23078;SDS011;11707;50.830;4.364;2023-05-16T12:46:39;4.43;;;1.15;;
23078;SDS011;11707;50.830;4.364;2023-05-16T12:49:06;5.38;;;1.13;;
23078;SDS011;11707;50.830;4.364;2023-05-16T12:51:32;3.35;;;0.80;;
23078;SDS011;11707;50.830;4.364;2023-05-16T12:54:05;4.13;;;1.00;;
23078;SDS011;11707;50.830;4.364;2023-05-16T12:56:38;7.55;;;1.80;;
23078;SDS011;11707;50.830;4.364;2023-05-16T12:59:04;3.60;;;0.75;;
23078;SDS011;11707;50.830;4.364;2023-05-16T13:01:30;6.22;;;1.25;;
23078;SDS011;11707;50.830;4.364;2023-05-16T13:03:56;6.70;;;0.98;;
23078;SDS011;11707;50.830;4.364;2023-05-16T13:06:24;3.88;;;0.77;;
23078;SDS011;11707;50.830;4.364;2023-05-16T13:08:50;5.00;;;1.25;;
23078;SDS011;11707;50.830;4.364;2023-05-16T13:11:16;6.50;;;1.27;;
23078;SDS011;11707;50.830;4.364;2023-05-16T13:13:43;6.70;;;1.45;;
23078;SDS011;11707;50.830;4.364;2023-05-16T13:16:09;3.42;;;0.70;;
23078;SDS011;11707;50.830;4.364;2023-05-16T13:18:35;5.53;;;1.10;;
23078;SDS011;11707;50.830;4.364;2023-05-16T13:21:01;3.05;;;1.00;;
23078;SDS011;11707;50.830;4.364;2023-05-16T13:23:28;5.30;;;1.30;;
23078;SDS011;11707;50.830;4.364;2023-05-16T13:25:54;6.47;;;1.35;;
23078;SDS011;11707;50.830;4.364;2023-05-16T13:28:20;3.95;;;1.15;;
23078;SDS011;11707;50.830;4.364;2023-05-16T13:30:46;5.25;;;1.58;;
23078;SDS011;11707;50.830;4.364;2023-05-16T13:33:12;7.63;;;1.30;;
23078;SDS011;11707;50.830;4.364;2023-05-16T13:35:38;5.65;;;1.00;;
23078;SDS011;11707;50.830;4.364;2023-05-16T13:38:06;6.78;;;1.40;;
23078;SDS011;11707;50.830;4.364;2023-05-16T13:40:34;2.35;;;1.13;;
23078;SDS011;11707;50.830;4.364;2023-05-16T13:43:00;4.30;;;0.80;;
23078;SDS011;11707;50.830;4.364;2023-05-16T13:45:27;6.88;;;1.10;;
23078;SDS011;11707;50.830;4.364;2023-05-16T13:47:52;4.45;;;1.30;;
23078;SDS011;11707;50.830;4.364;2023-05-16T13:50:18;6.05;;;0.95;;
23078;SDS011;11707;50.830;4.364;2023-05-16T13:52:44;5.43;;;1.17;;
23078;SDS011;11707;50.830;4.364;2023-05-16T13:55:11;6.68;;;1.25;;
23078;SDS011;11707;50.830;4.364;2023-05-16T13:57:37;6.95;;;1.42;;
23078;SDS011;11707;50.830;4.364;2023-05-16T14:00:03;5.65;;;1.33;;
23078;SDS011;11707;50.830;4.364;2023-05-16T14:02:36;5.07;;;1.08;;
23078;SDS011;11707;50.830;4.364;2023-05-16T14:05:05;4.07;;;0.88;;
23078;SDS011;11707;50.830;4.364;2023-05-16T14:07:32;4.63;;;1.13;;
23078;SDS011;11707;50.830;4.364;2023-05-16T14:09:57;9.38;;;1.40;;
23078;SDS011;11707;50.830;4.364;2023-05-16T14:12:23;5.72;;;1.40;;
23078;SDS011;11707;50.830;4.364;2023-05-16T14:14:49;4.25;;;1.10;;
23078;SDS011;11707;50.830;4.364;2023-05-16T14:17:15;5.40;;;1.33;;
23078;SDS011;11707;50.830;4.364;2023-05-16T14:19:40;5.97;;;1.48;;
23078;SDS011;11707;50.830;4.364;2023-05-16T14:22:08;6.13;;;1.10;;
23078;SDS011;11707;50.830;4.364;2023-05-16T14:24:34;3.92;;;1.10;;
23078;SDS011;11707;50.830;4.364;2023-05-16T14:27:00;4.30;;;1.58;;
23078;SDS011;11707;50.830;4.364;2023-05-16T14:29:26;7.28;;;1.15;;
23078;SDS011;11707;50.830;4.364;2023-05-16T14:31:52;3.30;;;0.77;;
23078;SDS011;11707;50.830;4.364;2023-05-16T14:34:18;4.25;;;1.02;;
23078;SDS011;11707;50.830;4.364;2023-05-16T14:36:47;3.17;;;0.57;;
23078;SDS011;11707;50.830;4.364;2023-05-16T14:39:15;2.08;;;0.70;;
23078;SDS011;11707;50.830;4.364;2023-05-16T14:41:41;4.10;;;1.10;;
23078;SDS011;11707;50.830;4.364;2023-05-16T14:44:07;4.65;;;1.25;;
23078;SDS011;11707;50.830;4.364;2023-05-16T14:46:33;6.13;;;1.00;;
23078;SDS011;11707;50.830;4.364;2023-05-16T14:48:58;3.75;;;0.63;;
23078;SDS011;11707;50.830;4.364;2023-05-16T14:51:24;5.15;;;0.95;;
23078;SDS011;11707;50.830;4.364;2023-05-16T14:53:50;5.18;;;0.98;;
23078;SDS011;11707;50.830;4.364;2023-05-16T14:56:16;2.83;;;0.70;;
23078;SDS011;11707;50.830;4.364;2023-05-16T14:58:44;5.05;;;1.65;;
23078;SDS011;11707;50.830;4.364;2023-05-16T15:01:10;2.55;;;1.27;;
23078;SDS011;11707;50.830;4.364;2023-05-16T15:03:36;3.67;;;0.85;;
23078;SDS011;11707;50.830;4.364;2023-05-16T15:06:04;4.97;;;0.90;;
23078;SDS011;11707;50.830;4.364;2023-05-16T15:08:32;4.70;;;1.65;;
23078;SDS011;11707;50.830;4.364;2023-05-16T15:10:58;3.28;;;0.88;;
23078;SDS011;11707;50.830;4.364;2023-05-16T15:13:25;3.70;;;1.08;;
23078;SDS011;11707;50.830;4.364;2023-05-16T15:15:50;4.88;;;1.23;;
23078;SDS011;11707;50.830;4.364;2023-05-16T15:18:19;5.97;;;1.73;;
23078;SDS011;11707;50.830;4.364;2023-05-16T15:20:45;6.95;;;1.02;;
23078;SDS011;11707;50.830;4.364;2023-05-16T15:23:11;6.50;;;1.02;;